Time;durP1;ratioP1;P1;durP2;ratioP2;P2;SDS_P1;SDS_P2;PMS_P1;PMS_P2;Temp;Humidity;BMP_temperature;BMP_pressure;BME280_temperature;BME280_humidity;BME280_pressure;Samples;Min_cycle;Max_cycle;Signal;HPM_P1;HPM_P2
2022/06/06 00:00:13;;;;;;;9.93;7.20;;;20.20;67.30;;;;;;10420161;28;20114;-61
2022/06/06 00:05:14;;;;;;;9.98;7.95;;;20.20;67.20;;;;;;10416394;28;20026;-61
2022/06/06 00:10:15;;;;;;;9.43;8.02;;;20.20;67.30;;;;;;10416236;28;20163;-61
2022/06/06 00:15:16;;;;;;;9.88;7.47;;;20.20;67.20;;;;;;10415662;28;20033;-59
2022/06/06 00:20:17;;;;;;;10.15;8.18;;;20.20;67.20;;;;;;10415912;28;20462;-60
2022/06/06 00:25:18;;;;;;;9.07;7.50;;;20.20;67.20;;;;;;10413833;28;20482;-60
2022/06/06 00:30:19;;;;;;;9.50;7.75;;;20.20;67.20;;;;;;10415576;28;20026;-60
2022/06/06 00:35:20;;;;;;;8.15;6.50;;;20.20;67.10;;;;;;10414879;28;20050;-59
2022/06/06 00:40:24;;;;;;;11.30;7.75;;;20.20;67.10;;;;;;10415164;28;20039;-60
2022/06/06 00:45:37;;;;;;;8.95;6.88;;;20.20;67.10;;;;;;10414425;28;20029;-60
2022/06/06 00:51:03;;;;;;;9.23;7.65;;;20.20;67.10;;;;;;10401471;28;20037;-60
2022/06/06 00:56:23;;;;;;;12.48;8.30;;;20.20;67.00;;;;;;10408199;28;20033;-60
2022/06/06 01:01:26;;;;;;;9.18;7.55;;;20.10;67.00;;;;;;10413231;28;20057;-60
2022/06/06 01:06:29;;;;;;;7.65;6.43;;;20.20;67.00;;;;;;10412639;28;20034;-60
2022/06/06 01:11:37;;;;;;;9.27;7.28;;;20.10;66.90;;;;;;10412660;28;20068;-59
2022/06/06 01:17:41;;;;;;;7.80;5.88;;;20.10;66.90;;;;;;10412413;28;20523;-59
2022/06/06 01:23:06;;;;;;;7.82;6.78;;;20.10;66.90;;;;;;10326859;28;20685;-59
2022/06/06 01:28:30;;;;;;;7.68;6.35;;;20.10;66.90;;;;;;10392789;28;20496;-60
2022/06/06 01:33:53;;;;;;;8.60;7.38;;;20.10;66.80;;;;;;10412818;28;20047;-60
2022/06/06 01:38:57;;;;;;;7.25;6.05;;;20.10;66.80;;;;;;10412467;28;20021;-60
2022/06/06 01:44:37;;;;;;;7.75;6.40;;;20.10;66.90;;;;;;10408697;28;20526;-59
2022/06/06 01:49:39;;;;;;;7.80;6.47;;;20.10;66.80;;;;;;10415034;28;20060;-60
2022/06/06 01:54:42;;;;;;;11.57;7.32;;;20.10;66.80;;;;;;10411057;28;20041;-61
2022/06/06 01:59:42;;;;;;;6.63;6.00;;;20.10;67.40;;;;;;10418181;28;20032;-59
2022/06/06 02:04:44;;;;;;;9.82;6.65;;;20.10;66.80;;;;;;10412440;28;20033;-59
2022/06/06 02:09:44;;;;;;;7.25;6.32;;;20.10;66.80;;;;;;10412446;28;20048;-59
2022/06/06 02:14:45;;;;;;;7.95;6.60;;;20.10;66.80;;;;;;10410774;28;20597;-58
2022/06/06 02:19:45;;;;;;;7.78;6.97;;;20.10;66.70;;;;;;10411028;28;20490;-59
2022/06/06 02:24:46;;;;;;;8.50;6.35;;;20.10;66.80;;;;;;10412075;28;20116;-59
2022/06/06 02:29:47;;;;;;;7.70;6.20;;;20.10;66.70;;;;;;10412428;28;20060;-60
2022/06/06 02:34:48;;;;;;;7.65;6.63;;;20.00;66.70;;;;;;10411274;28;20172;-59
2022/06/06 02:39:49;;;;;;;8.48;6.45;;;20.10;66.70;;;;;;10411847;28;20026;-58
2022/06/06 02:44:49;;;;;;;7.20;5.80;;;20.00;66.60;;;;;;10411592;28;20055;-59
2022/06/06 02:49:50;;;;;;;8.43;6.00;;;20.10;66.70;;;;;;10416101;28;20103;-60
2022/06/06 02:54:52;;;;;;;8.02;7.10;;;20.00;66.70;;;;;;10419292;28;20450;-59
2022/06/06 02:59:55;;;;;;;8.50;6.85;;;20.00;66.70;;;;;;10424583;28;20033;-59
2022/06/06 03:04:56;;;;;;;8.80;6.95;;;20.10;66.70;;;;;;10418746;28;20402;-60
2022/06/06 03:10:11;;;;;;;8.00;6.55;;;20.00;66.70;;;;;;10417167;28;20043;-59
2022/06/06 03:15:39;;;;;;;7.50;6.32;;;20.00;66.60;;;;;;10418188;28;20029;-58
2022/06/06 03:21:18;;;;;;;7.63;6.03;;;20.00;66.70;;;;;;10417994;28;20068;-59
2022/06/06 03:26:35;;;;;;;9.65;7.50;;;20.00;66.70;;;;;;10417488;28;20042;-59
2022/06/06 03:31:53;;;;;;;8.45;6.35;;;20.00;66.60;;;;;;10414212;28;20052;-60
2022/06/06 03:37:12;;;;;;;7.90;6.07;;;20.00;66.60;;;;;;10415395;28;20034;-58
2022/06/06 03:42:31;;;;;;;8.27;6.60;;;20.00;66.70;;;;;;10412579;28;20033;-59
2022/06/06 03:48:12;;;;;;;10.23;6.97;;;20.00;66.70;;;;;;10415912;28;20800;-59
2022/06/06 03:53:31;;;;;;;8.13;6.47;;;20.00;66.70;;;;;;10408740;28;20037;-59
2022/06/06 03:58:33;;;;;;;;;;;20.00;66.70;;;;;;10414629;28;20041;-59
2022/06/06 04:03:35;;;;;;;8.15;6.18;;;20.00;66.70;;;;;;10415081;28;19917;-59
2022/06/06 04:08:36;;;;;;;11.07;6.82;;;20.00;66.80;;;;;;10414116;28;20041;-59
2022/06/06 04:14:24;;;;;;;9.88;6.75;;;19.90;66.70;;;;;;10415227;28;20063;-59
2022/06/06 04:19:58;;;;;;;7.88;6.57;;;20.00;66.70;;;;;;10413184;28;20497;-60
2022/06/06 04:25:27;;;;;;;11.13;6.22;;;19.90;66.70;;;;;;10411805;28;20053;-59
2022/06/06 04:30:37;;;;;;;7.35;5.72;;;19.90;66.70;;;;;;10408828;28;20037;-59
2022/06/06 04:36:03;;;;;;;8.55;7.25;;;20.00;66.80;;;;;;10418466;28;20045;-59
2022/06/06 04:41:40;;;;;;;9.55;6.60;;;20.00;66.80;;;;;;10409901;28;20378;-60
2022/06/06 04:47:23;;;;;;;8.70;7.07;;;19.90;66.80;;;;;;10405534;28;20464;-59
2022/06/06 04:52:25;;;;;;;9.30;6.68;;;19.90;66.80;;;;;;10413499;28;20068;-57
2022/06/06 04:57:28;;;;;;;13.77;7.70;;;19.90;67.50;;;;;;10421507;28;20038;-60
2022/06/06 05:02:29;;;;;;;14.88;7.80;;;20.10;68.20;;;;;;10413821;28;20025;-60
2022/06/06 05:08:11;;;;;;;19.25;8.77;;;20.20;68.40;;;;;;10412797;28;20473;-57
2022/06/06 05:13:43;;;;;;;14.10;8.25;;;20.10;68.90;;;;;;10413176;28;20022;-59
2022/06/06 05:19:25;;;;;;;10.85;8.52;;;20.00;69.10;;;;;;10413934;28;20116;-60
2022/06/06 05:25:20;;;;;;;14.30;8.30;;;20.10;70.10;;;;;;10414826;28;20032;-58
2022/06/06 05:30:38;;;;;;;15.82;8.82;;;20.10;70.00;;;;;;10387439;28;20049;-60
2022/06/06 05:35:57;;;;;;;16.58;8.90;;;20.20;70.00;;;;;;10404879;28;20042;-59
2022/06/06 05:41:14;;;;;;;15.27;7.80;;;20.20;69.80;;;;;;10410964;28;20383;-61
2022/06/06 05:46:44;;;;;;;13.98;7.55;;;20.10;69.60;;;;;;10409980;28;20025;-61
2022/06/06 05:52:34;;;;;;;13.73;8.07;;;20.10;69.00;;;;;;10399743;28;20064;-59
2022/06/06 05:58:12;;;;;;;14.77;8.60;;;20.10;68.80;;;;;;10416789;28;20037;-59
2022/06/06 06:03:54;;;;;;;16.13;7.88;;;20.10;68.80;;;;;;10412826;28;20037;-56
2022/06/06 06:09:49;;;;;;;19.02;9.82;;;20.10;68.50;;;;;;10409336;28;20037;-56
2022/06/06 06:15:12;;;;;;;21.15;9.15;;;20.10;68.80;;;;;;10404063;28;20041;-55
2022/06/06 06:20:25;;;;;;;16.35;9.93;;;20.00;68.40;;;;;;10403361;28;20446;-58
2022/06/06 06:25:27;;;;;;;11.98;7.85;;;20.00;68.90;;;;;;10414964;28;20030;-56
2022/06/06 06:30:40;;;;;;;17.67;7.70;;;20.00;68.50;;;;;;10418836;28;20034;-56
2022/06/06 06:36:40;;;;;;;14.30;8.43;;;20.00;68.30;;;;;;10435077;28;20104;-57
2022/06/06 06:42:25;;;;;;;20.35;7.82;;;20.00;68.90;;;;;;10398497;28;20056;-56
2022/06/06 06:47:33;;;;;;;15.70;7.60;;;20.00;68.90;;;;;;10417288;28;20029;-56
2022/06/06 06:52:43;;;;;;;17.65;7.95;;;20.00;69.00;;;;;;10417307;28;20563;-57
2022/06/06 06:58:19;;;;;;;36.50;8.43;;;20.00;69.50;;;;;;10418602;28;20032;-56
2022/06/06 07:09:19;;;;;;;20.35;7.75;;;20.10;68.80;;;;;;10415753;28;20064;-57
2022/06/06 07:14:43;;;;;;;40.08;9.27;;;20.00;68.70;;;;;;10416526;28;20064;-58
2022/06/06 07:19:48;;;;;;;26.48;9.38;;;20.10;68.70;;;;;;10433163;28;20036;-57
2022/06/06 07:24:57;;;;;;;17.92;6.68;;;20.10;69.80;;;;;;10417420;28;20061;-57
2022/06/06 07:29:57;;;;;;;38.88;8.68;;;20.10;68.90;;;;;;10395714;28;20079;-58
2022/06/06 07:35:21;;;;;;;45.63;10.00;;;20.10;69.00;;;;;;10406694;28;20052;-58
2022/06/06 07:40:48;;;;;;;43.25;8.80;;;20.10;69.20;;;;;;10408774;28;20484;-58
2022/06/06 07:45:56;;;;;;;29.85;8.18;;;20.10;69.30;;;;;;10415314;28;20029;-57
2022/06/06 07:51:38;;;;;;;36.50;10.18;;;20.10;69.50;;;;;;10416329;28;20378;-57
2022/06/06 07:57:22;;;;;;;38.90;8.60;;;20.20;69.50;;;;;;10414703;28;20047;-57
2022/06/06 08:03:09;;;;;;;34.60;8.80;;;20.20;69.50;;;;;;10413748;28;20079;-57
2022/06/06 08:08:57;;;;;;;26.80;7.78;;;20.20;69.50;;;;;;10416458;28;20037;-59
2022/06/06 08:14:33;;;;;;;20.75;6.85;;;20.20;69.50;;;;;;10416119;28;20052;-56
2022/06/06 08:19:52;;;;;;;24.90;7.72;;;20.20;69.50;;;;;;10415644;28;20034;-57
2022/06/06 08:24:56;;;;;;;18.40;5.90;;;20.20;69.60;;;;;;10406138;28;20057;-59
2022/06/06 08:29:58;;;;;;;27.10;7.03;;;20.30;69.60;;;;;;10401688;28;20045;-59
2022/06/06 08:34:59;;;;;;;25.55;7.00;;;20.40;69.50;;;;;;10409873;28;20037;-59
2022/06/06 08:40:28;;;;;;;25.52;7.53;;;20.30;69.40;;;;;;10413675;28;20493;-57
2022/06/06 08:45:47;;;;;;;19.90;6.15;;;20.40;69.10;;;;;;10414917;28;20054;-58
2022/06/06 08:51:01;;;;;;;;;;;20.40;69.00;;;;;;10413622;28;20060;-58
2022/06/06 08:56:33;;;;;;;18.13;7.18;;;20.40;69.20;;;;;;10402086;28;19920;-58
2022/06/06 09:02:16;;;;;;;19.80;6.80;;;20.40;69.20;;;;;;10410202;28;20076;-56
2022/06/06 09:07:49;;;;;;;20.38;5.68;;;20.50;69.40;;;;;;10413389;28;20041;-58
2022/06/06 09:13:34;;;;;;;21.40;6.10;;;20.50;69.10;;;;;;10413933;28;20437;-59
2022/06/06 09:19:18;;;;;;;20.33;5.90;;;20.50;69.20;;;;;;10410346;28;20060;-57
2022/06/06 09:24:59;;;;;;;29.08;6.47;;;20.50;69.20;;;;;;10413530;28;20480;-57
2022/06/06 09:30:25;;;;;;;24.77;6.93;;;20.60;69.20;;;;;;10412746;28;20029;-55
2022/06/06 09:36:09;;;;;;;23.80;7.28;;;20.60;69.40;;;;;;10412014;28;20474;-56
2022/06/06 09:41:37;;;;;;;33.42;7.97;;;20.60;69.40;;;;;;10413523;28;20083;-57
2022/06/06 09:47:31;;;;;;;22.40;5.75;;;20.60;69.50;;;;;;10402480;28;20389;-57
2022/06/06 09:53:09;;;;;;;14.13;6.68;;;20.50;69.20;;;;;;10411773;28;20075;-59
2022/06/06 10:04:29;;;;;;;20.83;5.95;;;20.40;69.10;;;;;;10412707;28;20037;-55
2022/06/06 10:10:22;;;;;;;18.25;6.35;;;20.40;69.10;;;;;;10405115;28;20405;-57
2022/06/06 10:15:37;;;;;;;23.35;6.65;;;20.40;69.30;;;;;;10412678;28;20034;-57
2022/06/06 10:20:48;;;;;;;18.65;5.88;;;20.50;70.30;;;;;;10411781;28;20026;-58
2022/06/06 10:26:15;;;;;;;12.30;4.90;;;20.50;70.10;;;;;;10411295;28;20040;-56
2022/06/06 10:31:34;;;;;;;14.32;5.53;;;20.50;69.20;;;;;;10411923;28;20100;-57
2022/06/06 10:36:58;;;;;;;13.30;5.43;;;20.50;69.10;;;;;;10412037;28;20033;-59
2022/06/06 10:42:14;;;;;;;13.25;5.05;;;20.50;69.00;;;;;;10410649;28;20036;-58
2022/06/06 10:47:31;;;;;;;14.48;5.13;;;20.60;69.00;;;;;;10411567;28;20033;-58
2022/06/06 10:53:46;;;;;;;17.73;7.00;;;20.60;68.90;;;;;;10408710;28;20040;-57
2022/06/06 10:59:36;;;;;;;14.18;5.30;;;20.50;68.90;;;;;;10357348;28;20096;-56
2022/06/06 11:04:51;;;;;;;10.00;5.20;;;20.50;68.90;;;;;;10403556;28;20041;-56
2022/06/06 11:10:07;;;;;;;15.10;6.20;;;20.50;68.80;;;;;;10413984;28;20030;-57
2022/06/06 11:15:08;;;;;;;12.27;5.10;;;20.50;68.70;;;;;;10416890;28;20044;-56
2022/06/06 11:20:39;;;;;;;11.45;4.85;;;20.50;68.50;;;;;;10414337;28;20039;-57
2022/06/06 11:26:14;;;;;;;11.10;4.82;;;20.60;68.30;;;;;;10415512;28;20052;-56
2022/06/06 11:31:52;;;;;;;16.35;4.65;;;20.60;68.20;;;;;;10417167;28;20052;-56
2022/06/06 11:37:12;;;;;;;13.63;6.25;;;20.60;68.20;;;;;;10416460;28;20116;-57
2022/06/06 11:42:47;;;;;;;12.00;4.78;;;20.60;68.30;;;;;;10416525;28;20507;-56
2022/06/06 11:48:14;;;;;;;10.57;5.45;;;20.50;68.20;;;;;;10417203;28;20041;-56
2022/06/06 11:53:47;;;;;;;10.68;3.75;;;20.50;68.30;;;;;;10417414;28;20029;-56
2022/06/06 11:59:28;;;;;;;10.52;4.40;;;20.50;68.30;;;;;;10422528;28;20065;-56
2022/06/06 12:05:09;;;;;;;8.95;4.40;;;20.50;68.40;;;;;;10416709;28;20032;-57
2022/06/06 12:10:32;;;;;;;8.40;4.18;;;20.40;68.50;;;;;;10415872;28;20037;-56
2022/06/06 12:15:54;;;;;;;10.88;4.28;;;20.40;68.60;;;;;;10413731;28;20021;-56
2022/06/06 12:21:09;;;;;;;9.07;4.10;;;20.40;68.50;;;;;;10415972;28;20433;-56
2022/06/06 12:26:45;;;;;;;5.75;3.97;;;20.40;68.30;;;;;;10415765;28;20498;-57
2022/06/06 12:32:30;;;;;;;11.55;3.72;;;20.40;68.50;;;;;;10414758;28;20159;-56
2022/06/06 12:37:59;;;;;;;14.05;4.43;;;20.40;68.60;;;;;;10415441;28;20140;-56
2022/06/06 12:43:30;;;;;;;6.45;4.13;;;20.40;68.60;;;;;;10414854;28;20521;-58
2022/06/06 12:48:46;;;;;;;6.40;3.53;;;20.30;68.60;;;;;;10407929;28;20084;-57
2022/06/06 12:54:29;;;;;;;8.18;3.67;;;20.30;68.60;;;;;;10411196;28;20083;-56
2022/06/06 12:59:54;;;;;;;14.35;4.55;;;20.30;68.60;;;;;;10417850;28;20045;-56
2022/06/06 13:05:09;;;;;;;5.13;3.50;;;20.30;68.60;;;;;;10413676;28;20036;-56
2022/06/06 13:10:55;;;;;;;5.55;3.20;;;20.30;68.60;;;;;;10413200;28;20025;-56
2022/06/06 13:16:17;;;;;;;5.82;3.78;;;20.30;68.60;;;;;;10404744;28;20156;-57
2022/06/06 13:21:42;;;;;;;5.63;3.90;;;20.20;68.50;;;;;;10413633;28;20565;-57
2022/06/06 13:27:12;;;;;;;5.63;3.80;;;20.30;68.60;;;;;;10399277;28;20037;-57
2022/06/06 13:32:39;;;;;;;26.42;4.55;;;20.30;68.50;;;;;;10409032;28;20140;-57
2022/06/06 13:38:02;;;;;;;18.35;4.90;;;20.30;69.00;;;;;;10412345;28;20029;-56
2022/06/06 13:43:28;;;;;;;11.57;4.93;;;20.40;68.90;;;;;;10410023;28;20029;-56
2022/06/06 13:48:40;;;;;;;27.95;6.25;;;20.40;69.30;;;;;;10404842;28;20033;-57
2022/06/06 13:53:52;;;;;;;11.63;4.35;;;20.40;69.40;;;;;;10408210;28;20041;-56
2022/06/06 13:59:26;;;;;;;13.35;4.82;;;20.40;69.70;;;;;;10417697;28;20033;-56
2022/06/06 14:04:47;;;;;;;16.00;5.40;;;20.40;69.60;;;;;;10413043;28;20500;-57
2022/06/06 14:09:48;;;;;;;12.63;4.38;;;20.40;69.70;;;;;;10412380;28;20056;-57
2022/06/06 14:14:56;;;;;;;16.25;4.95;;;20.40;69.80;;;;;;10411677;28;20021;-56
2022/06/06 14:20:25;;;;;;;24.73;4.75;;;20.40;69.90;;;;;;10411682;28;20486;-56
2022/06/06 14:25:44;;;;;;;14.00;4.13;;;20.40;69.40;;;;;;10412867;28;20382;-57
2022/06/06 14:30:46;;;;;;;12.50;4.43;;;20.30;69.20;;;;;;10411308;28;20037;-56
2022/06/06 14:35:47;;;;;;;14.75;4.22;;;20.30;69.60;;;;;;10410829;28;20134;-58
2022/06/06 14:41:03;;;;;;;8.80;3.38;;;20.30;69.20;;;;;;10410548;28;20116;-57
2022/06/06 14:46:03;;;;;;;10.43;3.92;;;20.40;68.80;;;;;;10416582;28;20045;-56
2022/06/06 14:51:07;;;;;;;8.57;3.78;;;20.30;69.00;;;;;;10405250;28;20363;-59
2022/06/06 14:56:23;;;;;;;17.55;3.67;;;20.50;69.30;;;;;;10416827;28;20048;-58
2022/06/06 15:01:26;;;;;;;13.35;3.95;;;20.60;68.70;;;;;;10417934;28;20053;-58
2022/06/06 15:06:31;;;;;;;14.38;3.50;;;20.50;69.30;;;;;;10416823;28;20128;-57
2022/06/06 15:11:34;;;;;;;12.48;4.13;;;20.50;69.70;;;;;;10412499;28;20137;-58
2022/06/06 15:16:36;;;;;;;12.95;3.95;;;20.50;69.70;;;;;;10407999;28;20504;-57
2022/06/06 15:21:41;;;;;;;20.63;3.63;;;20.40;69.80;;;;;;10416345;28;20105;-60
2022/06/06 15:27:01;;;;;;;12.85;4.07;;;20.50;69.40;;;;;;10415768;28;20073;-60
2022/06/06 15:32:37;;;;;;;12.60;3.60;;;20.50;69.30;;;;;;10416266;28;20136;-59
2022/06/06 15:38:09;;;;;;;13.68;3.42;;;20.40;68.90;;;;;;10414462;28;20034;-67
2022/06/06 15:43:31;;;;;;;12.90;4.03;;;20.40;67.60;;;;;;10431040;28;20025;-64
2022/06/06 15:48:56;;;;;;;14.35;4.00;;;20.30;67.30;;;;;;10415912;28;20059;-64
2022/06/06 15:54:24;;;;;;;11.63;4.15;;;20.30;66.80;;;;;;10416837;28;20030;-63
2022/06/06 16:00:04;;;;;;;19.92;9.77;;;20.30;67.70;;;;;;10422340;28;20083;-62
2022/06/06 16:05:27;;;;;;;22.65;9.95;;;20.30;69.70;;;;;;10395801;28;20087;-64
2022/06/06 16:10:52;;;;;;;24.63;7.45;;;20.30;70.70;;;;;;10399532;28;20037;-63
2022/06/06 16:16:29;;;;;;;21.90;8.18;;;20.40;69.30;;;;;;10415980;28;20056;-63
2022/06/06 16:21:49;;;;;;;27.63;6.22;;;20.30;73.00;;;;;;10397518;28;20032;-63
2022/06/06 16:27:00;;;;;;;28.20;6.13;;;20.30;68.20;;;;;;10410174;28;20032;-61
2022/06/06 16:32:33;;;;;;;24.42;6.55;;;20.50;72.80;;;;;;10414727;28;20057;-67
2022/06/06 16:38:04;;;;;;;19.95;5.80;;;20.50;71.30;;;;;;10410656;28;20085;-60
2022/06/06 16:48:56;;;;;;;16.52;4.70;;;20.60;71.30;;;;;;10415151;28;20041;-64
2022/06/06 16:54:24;;;;;;;27.92;6.03;;;20.60;71.30;;;;;;10414260;28;20373;-64
2022/06/06 17:00:02;;;;;;;17.95;4.40;;;20.60;71.60;;;;;;10418954;28;20068;-64
2022/06/06 17:05:19;;;;;;;15.95;4.50;;;20.50;71.30;;;;;;10411289;28;20043;-66
2022/06/06 17:10:50;;;;;;;12.27;3.85;;;20.40;71.30;;;;;;10412972;28;20429;-62
2022/06/06 17:15:51;;;;;;;16.63;4.28;;;20.40;71.60;;;;;;10412991;28;20088;-62
2022/06/06 17:21:22;;;;;;;16.00;4.13;;;20.30;71.40;;;;;;10411816;28;20024;-61
2022/06/06 17:26:54;;;;;;;19.45;5.57;;;20.40;71.60;;;;;;10407104;28;20428;-60
2022/06/06 17:32:21;;;;;;;26.70;6.78;;;20.40;71.70;;;;;;10409602;28;20045;-62
2022/06/06 17:37:47;;;;;;;21.38;4.75;;;20.30;71.50;;;;;;10398959;28;20049;-61
2022/06/06 17:42:50;;;;;;;21.88;4.65;;;20.40;71.60;;;;;;10380780;28;20026;-61
2022/06/06 17:48:22;;;;;;;21.65;5.25;;;20.30;71.50;;;;;;10376997;28;20045;-61
2022/06/06 17:53:44;;;;;;;16.15;4.15;;;20.30;71.50;;;;;;10390209;28;20485;-61
2022/06/06 17:59:12;;;;;;;13.23;4.07;;;20.30;71.50;;;;;;10416681;28;20033;-61
2022/06/06 18:04:48;;;;;;;17.73;4.03;;;20.30;71.40;;;;;;10378219;28;20033;-59
2022/06/06 18:10:12;;;;;;;10.95;3.38;;;20.30;71.20;;;;;;10388158;28;20351;-61
2022/06/06 18:15:45;;;;;;;18.58;3.67;;;20.30;71.10;;;;;;10409768;28;20038;-61
2022/06/06 18:21:12;;;;;;;17.55;4.00;;;20.30;71.00;;;;;;10416779;28;20026;-60
2022/06/06 18:26:13;;;;;;;16.95;5.50;;;20.30;71.00;;;;;;10389251;28;20028;-60
2022/06/06 18:31:27;;;;;;;15.50;4.88;;;20.30;70.80;;;;;;10388270;28;20061;-61
2022/06/06 18:36:30;;;;;;;11.68;3.45;;;20.20;70.80;;;;;;10374608;28;20028;-61
2022/06/06 18:41:41;;;;;;;16.38;4.53;;;20.20;70.70;;;;;;10402622;28;20060;-61
2022/06/06 18:46:42;;;;;;;7.28;3.33;;;20.20;70.60;;;;;;10386454;28;20120;-61
2022/06/06 18:51:51;;;;;;;8.93;3.60;;;20.20;72.00;;;;;;10412309;28;20048;-65
2022/06/06 18:57:03;;;;;;;12.95;3.92;;;20.20;71.50;;;;;;10418236;28;20037;-66
2022/06/06 19:02:38;;;;;;;10.98;3.72;;;20.20;71.40;;;;;;10416169;28;20017;-66
2022/06/06 19:07:41;;;;;;;9.05;3.65;;;20.20;71.40;;;;;;10411897;28;20149;-66
2022/06/06 19:13:14;;;;;;;10.98;2.97;;;20.20;71.20;;;;;;10418384;28;20052;-66
2022/06/06 19:18:15;;;;;;;9.05;3.95;;;20.10;71.10;;;;;;10409074;28;20103;-65
2022/06/06 19:23:24;;;;;;;8.32;2.83;;;20.10;71.10;;;;;;10415273;28;20478;-66
2022/06/06 19:28:39;;;;;;;6.18;2.40;;;20.10;70.90;;;;;;10415382;28;20053;-65
2022/06/06 19:33:47;;;;;;;6.45;1.80;;;20.10;70.90;;;;;;10411777;28;20045;-64
2022/06/06 19:38:48;;;;;;;5.88;2.63;;;20.10;70.60;;;;;;10410963;28;20095;-64
2022/06/06 19:43:50;;;;;;;6.90;2.97;;;20.10;71.10;;;;;;10416820;28;20075;-64
2022/06/06 19:49:03;;;;;;;10.88;3.20;;;20.10;71.00;;;;;;10410810;28;20499;-63
2022/06/06 19:54:15;;;;;;;6.65;2.55;;;20.10;70.80;;;;;;10412336;28;20017;-64
2022/06/06 19:59:30;;;;;;;10.65;3.00;;;20.00;70.70;;;;;;10412404;28;20105;-64
2022/06/06 20:04:36;;;;;;;5.70;2.67;;;20.10;70.60;;;;;;10411717;28;20041;-63
2022/06/06 20:09:37;;;;;;;4.50;2.42;;;20.10;70.50;;;;;;10412562;28;20041;-64
2022/06/06 20:14:56;;;;;;;3.85;2.08;;;20.10;70.30;;;;;;10415072;28;20029;-63
2022/06/06 20:20:32;;;;;;;7.47;1.63;;;20.10;70.30;;;;;;10415859;28;20044;-63
2022/06/06 20:25:40;;;;;;;6.53;1.98;;;20.10;70.10;;;;;;10388547;28;20048;-64
2022/06/06 20:36:34;;;;;;;5.53;1.90;;;20.00;69.90;;;;;;10415340;28;20049;-63
2022/06/06 20:41:43;;;;;;;8.32;2.05;;;20.00;70.00;;;;;;10414320;28;20096;-64
2022/06/06 20:46:52;;;;;;;;;;;20.00;69.80;;;;;;10414738;28;20485;-64
2022/06/06 20:51:56;;;;;;;3.38;1.70;;;20.00;69.70;;;;;;10413864;28;19912;-63
2022/06/06 20:57:26;;;;;;;3.33;1.52;;;20.00;70.00;;;;;;10418989;28;20047;-63
2022/06/06 21:02:27;;;;;;;6.32;2.03;;;20.00;70.00;;;;;;10413515;28;20064;-63
2022/06/06 21:07:30;;;;;;;5.70;1.85;;;19.90;69.90;;;;;;10413347;28;20048;-63
2022/06/06 21:12:33;;;;;;;3.00;1.38;;;20.00;69.80;;;;;;10413512;28;20073;-64
2022/06/06 21:17:33;;;;;;;2.65;1.35;;;19.90;69.70;;;;;;10414103;28;20026;-63
2022/06/06 21:22:35;;;;;;;3.75;1.45;;;20.00;69.70;;;;;;10396612;28;20116;-64
2022/06/06 21:27:35;;;;;;;4.80;1.95;;;19.90;69.50;;;;;;10412735;28;20056;-64
2022/06/06 21:32:36;;;;;;;5.45;1.90;;;19.90;69.50;;;;;;10412653;28;20128;-64
2022/06/06 21:37:38;;;;;;;2.88;1.35;;;20.00;69.50;;;;;;10413401;28;20026;-64
2022/06/06 21:42:39;;;;;;;4.57;2.10;;;20.00;69.40;;;;;;10412532;28;20432;-63
2022/06/06 21:47:41;;;;;;;3.40;1.55;;;19.90;69.30;;;;;;10413130;28;20416;-64
2022/06/06 21:52:42;;;;;;;2.47;1.05;;;19.90;69.30;;;;;;10400011;28;20045;-63
2022/06/06 21:57:42;;;;;;;3.45;1.33;;;19.90;69.30;;;;;;10400342;28;20121;-63
2022/06/06 22:02:43;;;;;;;2.92;1.88;;;19.90;69.20;;;;;;10411876;28;20615;-63
2022/06/06 22:07:44;;;;;;;4.45;1.90;;;19.90;69.40;;;;;;10411858;28;20117;-63
2022/06/06 22:12:44;;;;;;;3.38;1.67;;;19.90;69.40;;;;;;10412952;28;20116;-64
2022/06/06 22:17:45;;;;;;;3.40;1.70;;;19.90;69.40;;;;;;10411428;28;20037;-63
2022/06/06 22:22:46;;;;;;;4.50;2.15;;;19.90;69.40;;;;;;10410955;28;20132;-63
2022/06/06 22:27:46;;;;;;;3.15;1.98;;;19.90;69.30;;;;;;10412168;28;20478;-63
2022/06/06 22:32:47;;;;;;;5.32;1.73;;;19.90;69.20;;;;;;10394462;28;20557;-63
2022/06/06 22:37:48;;;;;;;3.55;1.33;;;19.80;69.20;;;;;;10413291;28;20386;-63
2022/06/06 22:42:48;;;;;;;3.40;1.48;;;19.90;69.70;;;;;;10412235;28;20423;-63
2022/06/06 22:47:49;;;;;;;2.45;1.58;;;19.80;69.10;;;;;;10409721;28;20485;-63
2022/06/06 22:52:50;;;;;;;3.20;1.38;;;19.90;69.10;;;;;;10386184;28;20504;-63
2022/06/06 22:57:52;;;;;;;2.65;1.20;;;19.90;69.20;;;;;;10417307;28;20362;-63
2022/06/06 23:02:53;;;;;;;6.25;1.48;;;19.80;69.10;;;;;;10410544;28;20028;-63
2022/06/06 23:07:54;;;;;;;3.67;1.42;;;19.80;69.10;;;;;;10418033;28;20044;-63
2022/06/06 23:12:55;;;;;;;2.10;1.20;;;19.80;69.10;;;;;;10417878;28;20052;-63
2022/06/06 23:17:56;;;;;;;2.60;1.15;;;19.80;69.20;;;;;;10419080;28;20112;-63
2022/06/06 23:22:57;;;;;;;2.55;1.00;;;19.80;69.30;;;;;;10417467;28;20025;-63
2022/06/06 23:27:57;;;;;;;2.85;2.03;;;19.80;69.30;;;;;;10417472;28;20068;-63
2022/06/06 23:32:59;;;;;;;4.22;1.50;;;19.80;69.30;;;;;;10416817;28;20151;-63
2022/06/06 23:38:07;;;;;;;4.28;1.70;;;19.70;69.30;;;;;;10417137;28;20190;-63
2022/06/06 23:43:16;;;;;;;2.65;1.25;;;19.80;69.20;;;;;;10416760;28;20049;-63
2022/06/06 23:48:43;;;;;;;3.42;1.55;;;19.70;69.20;;;;;;10412677;28;20026;-63
2022/06/06 23:53:52;;;;;;;3.92;1.20;;;19.70;69.20;;;;;;10414098;28;20034;-63
2022/06/06 23:58:52;;;;;;;2.88;1.55;;;19.70;69.20;;;;;;10421627;28;20066;-63
